createdAt,value
2018-06-20T00:00:58.633Z,0
2018-06-20T00:02:08.374Z,0
2018-06-20T00:03:18.112Z,0
2018-06-20T00:04:27.586Z,0
2018-06-20T00:05:37.322Z,0
2018-06-20T00:06:47.321Z,0
2018-06-20T00:07:57.323Z,0
2018-06-20T00:09:07.062Z,0
2018-06-20T00:10:16.532Z,0
2018-06-20T00:11:26.541Z,0
2018-06-20T00:12:36.547Z,0
2018-06-20T00:13:46.554Z,0
2018-06-20T00:14:56.553Z,0
2018-06-20T00:16:06.024Z,0
2018-06-20T00:17:15.759Z,0
2018-06-20T00:18:25.762Z,0
2018-06-20T00:19:35.773Z,0
2018-06-20T00:20:45.780Z,0
2018-06-20T00:21:54.980Z,0
2018-06-20T00:23:04.182Z,0
2018-06-20T00:24:13.918Z,0
2018-06-20T00:25:23.657Z,0
2018-06-20T00:26:33.663Z,0
2018-06-20T00:27:43.409Z,0
2018-06-20T00:28:53.411Z,0
2018-06-20T00:30:03.153Z,0
2018-06-20T00:31:12.899Z,0
2018-06-20T00:32:22.641Z,0
2018-06-20T00:33:32.120Z,0
2018-06-20T00:34:41.858Z,0
2018-06-20T00:35:51.066Z,0
2018-06-20T00:37:01.073Z,0
2018-06-20T00:38:10.818Z,0
2018-06-20T00:39:20.832Z,0
2018-06-20T00:40:30.566Z,0
2018-06-20T00:41:40.588Z,0
2018-06-20T00:42:50.331Z,0
2018-06-20T00:44:00.115Z,0
2018-06-20T00:45:10.121Z,0
2018-06-20T00:46:20.117Z,0
2018-06-20T00:47:29.857Z,0
2018-06-20T00:48:39.859Z,0
2018-06-20T00:49:49.600Z,0
2018-06-20T00:50:59.071Z,0
2018-06-20T00:52:08.808Z,0
2018-06-20T00:53:18.810Z,0
2018-06-20T00:54:28.276Z,0
2018-06-20T00:55:38.275Z,0
2018-06-20T00:56:48.009Z,0
2018-06-20T00:57:58.014Z,0
2018-06-20T00:59:08.013Z,0
2018-06-20T01:00:17.772Z,0
2018-06-20T01:01:27.504Z,0
2018-06-20T01:02:36.976Z,0
2018-06-20T01:03:46.980Z,0
2018-06-20T01:04:56.719Z,0
2018-06-20T01:06:05.924Z,0
2018-06-20T01:07:15.399Z,0
2018-06-20T01:08:25.404Z,0
2018-06-20T01:09:35.140Z,0
2018-06-20T01:10:45.141Z,0
2018-06-20T01:11:56.109Z,0
2018-06-20T01:13:06.060Z,0
2018-06-20T01:14:15.817Z,0
2018-06-20T01:15:25.550Z,0
2018-06-20T01:16:35.557Z,0
2018-06-20T01:17:45.291Z,0
2018-06-20T01:18:55.027Z,0
2018-06-20T01:20:05.027Z,0
2018-06-20T01:21:15.039Z,0
2018-06-20T01:22:25.042Z,0
2018-06-20T01:23:34.775Z,0
2018-06-20T01:24:44.791Z,5
2018-06-20T01:25:54.799Z,5
2018-06-20T01:27:04.801Z,5
2018-06-20T01:28:14.534Z,5
2018-06-20T01:29:24.533Z,5
2018-06-20T01:30:34.004Z,5
2018-06-20T01:31:43.742Z,5
2018-06-20T01:32:53.479Z,5
2018-06-20T01:34:03.211Z,5
2018-06-20T01:35:12.951Z,5
2018-06-20T01:36:22.952Z,5
2018-06-20T01:37:32.694Z,10
2018-06-20T01:38:42.702Z,10
2018-06-20T01:39:52.701Z,10
2018-06-20T01:41:03.001Z,10
2018-06-20T01:42:13.009Z,10
2018-06-20T01:43:23.021Z,10
2018-06-20T01:44:32.496Z,10
2018-06-20T01:45:42.497Z,10
2018-06-20T01:46:51.964Z,10
2018-06-20T01:48:01.690Z,10
2018-06-20T01:49:11.162Z,10
2018-06-20T01:50:20.637Z,10
2018-06-20T01:51:30.371Z,15
2018-06-20T01:52:40.402Z,15
2018-06-20T01:53:50.137Z,15
2018-06-20T01:54:59.876Z,15
2018-06-20T01:56:09.366Z,15
2018-06-20T01:57:18.836Z,20
2018-06-20T01:58:28.876Z,20
2018-06-20T01:59:38.873Z,20
2018-06-20T02:00:48.877Z,25
2018-06-20T02:01:58.875Z,25
2018-06-20T02:03:08.613Z,25
2018-06-20T02:04:18.086Z,30
2018-06-20T02:05:27.822Z,30
2018-06-20T02:06:37.564Z,30
2018-06-20T02:07:47.562Z,30
2018-06-20T02:08:57.298Z,30
2018-06-20T02:10:07.033Z,30
2018-06-20T02:11:16.505Z,30
2018-06-20T02:12:26.508Z,30
2018-06-20T02:13:36.502Z,30
2018-06-20T02:14:46.500Z,35
2018-06-20T02:15:56.500Z,35
2018-06-20T02:17:06.241Z,35
2018-06-20T02:18:15.734Z,35
2018-06-20T02:19:25.740Z,40
2018-06-20T02:20:35.476Z,40
2018-06-20T02:21:45.480Z,40
2018-06-20T02:22:55.214Z,45
2018-06-20T02:24:04.684Z,45
2018-06-20T02:25:14.430Z,45
2018-06-20T02:26:23.898Z,50
2018-06-20T02:27:33.643Z,50
2018-06-20T02:28:43.651Z,50
2018-06-20T02:29:53.650Z,50
2018-06-20T02:31:03.388Z,50
2018-06-20T02:32:13.396Z,55
2018-06-20T02:33:23.133Z,55
2018-06-20T02:34:33.138Z,55
2018-06-20T02:35:43.174Z,55
2018-06-20T02:36:53.553Z,60
2018-06-20T02:38:03.581Z,60
2018-06-20T02:39:13.324Z,60
2018-06-20T02:40:23.067Z,60
2018-06-20T02:41:32.812Z,60
2018-06-20T02:42:42.547Z,60
2018-06-20T02:43:52.292Z,60
2018-06-20T02:45:02.029Z,60
2018-06-20T02:46:11.513Z,65
2018-06-20T02:47:21.532Z,65
2018-06-20T02:48:31.001Z,65
2018-06-20T02:49:41.024Z,70
2018-06-20T02:50:51.035Z,70
2018-06-20T02:52:00.775Z,65
2018-06-20T02:53:10.524Z,65
2018-06-20T02:54:20.290Z,65
2018-06-20T02:55:30.048Z,70
2018-06-20T02:56:40.052Z,75
2018-06-20T02:57:49.807Z,75
2018-06-20T02:58:59.825Z,80
2018-06-20T03:00:09.830Z,80
2018-06-20T03:03:51.635Z,80
2018-06-20T03:05:01.377Z,80
2018-06-20T03:06:11.402Z,80
2018-06-20T03:07:21.457Z,80
2018-06-20T03:08:31.465Z,85
2018-06-20T03:09:41.217Z,90
2018-06-20T03:10:50.959Z,90
2018-06-20T03:12:00.440Z,90
2018-06-20T03:13:10.192Z,90
2018-06-20T03:14:19.682Z,90
2018-06-20T03:15:29.696Z,90
2018-06-20T03:16:38.902Z,95
2018-06-20T03:17:48.904Z,95
2018-06-20T03:18:58.907Z,85
2018-06-20T03:20:08.643Z,85
2018-06-20T03:21:18.392Z,75
2018-06-20T03:22:28.129Z,75
2018-06-20T03:23:38.130Z,75
2018-06-20T03:24:48.141Z,80
2018-06-20T03:25:58.143Z,80
2018-06-20T03:27:08.151Z,80
2018-06-20T03:28:18.154Z,80
2018-06-20T03:29:28.155Z,85
2018-06-20T03:30:37.376Z,85
2018-06-20T03:31:47.115Z,90
2018-06-20T03:32:56.851Z,90
2018-06-20T03:34:06.599Z,95
2018-06-20T03:35:16.337Z,95
2018-06-20T03:36:26.084Z,100
2018-06-20T03:37:36.092Z,100
2018-06-20T03:38:46.097Z,100
2018-06-20T03:39:55.836Z,100
2018-06-20T03:41:05.845Z,110
2018-06-20T03:42:15.587Z,110
2018-06-20T03:43:25.597Z,115
2018-06-20T03:44:35.617Z,120
2018-06-20T03:45:45.617Z,115
2018-06-20T03:46:55.355Z,115
2018-06-20T03:48:05.369Z,115
2018-06-20T03:49:15.108Z,115
2018-06-20T03:50:24.578Z,120
2018-06-20T03:51:34.321Z,120
2018-06-20T03:52:44.320Z,120
2018-06-20T03:53:54.320Z,120
2018-06-20T03:55:04.055Z,125
2018-06-20T03:56:13.525Z,125
2018-06-20T03:57:23.530Z,125
2018-06-20T03:58:32.997Z,120
2018-06-20T03:59:43.005Z,120
2018-06-20T04:00:52.755Z,115
2018-06-20T04:02:02.753Z,120
2018-06-20T04:03:12.488Z,125
2018-06-20T04:04:22.498Z,115
2018-06-20T04:05:32.503Z,115
2018-06-20T04:06:42.562Z,120
2018-06-20T04:07:52.306Z,125
2018-06-20T04:09:02.330Z,135
2018-06-20T04:10:12.066Z,135
2018-06-20T04:11:21.805Z,130
2018-06-20T04:12:31.811Z,115
2018-06-20T04:13:41.555Z,130
2018-06-20T04:14:51.300Z,110
2018-06-20T04:16:01.315Z,110
2018-06-20T04:17:11.057Z,110
2018-06-20T04:18:21.008Z,110
2018-06-20T04:19:30.753Z,110
2018-06-20T04:20:40.761Z,115
2018-06-20T04:21:50.767Z,110
2018-06-20T04:23:00.537Z,120
2018-06-20T04:24:10.538Z,110
2018-06-20T04:25:20.549Z,115
2018-06-20T04:26:30.561Z,130
2018-06-20T04:27:40.310Z,125
2018-06-20T04:28:50.044Z,125
2018-06-20T04:30:00.071Z,125
2018-06-20T04:31:09.552Z,125
2018-06-20T04:32:19.020Z,125
2018-06-20T04:33:28.484Z,130
2018-06-20T04:34:38.763Z,125
2018-06-20T04:35:48.314Z,145
2018-06-20T04:36:58.316Z,140
2018-06-20T04:38:08.317Z,155
2018-06-20T04:39:18.326Z,160
2018-06-20T04:40:28.330Z,155
2018-06-20T04:41:38.331Z,180
2018-06-20T04:42:48.063Z,185
2018-06-20T04:43:58.077Z,195
2018-06-20T04:45:07.556Z,200
2018-06-20T04:46:17.311Z,210
2018-06-20T04:47:27.314Z,220
2018-06-20T04:48:36.788Z,220
2018-06-20T04:49:46.258Z,215
2018-06-20T04:50:56.263Z,225
2018-06-20T04:52:06.069Z,230
2018-06-20T04:53:15.807Z,235
2018-06-20T04:54:25.811Z,225
2018-06-20T04:55:35.426Z,235
2018-06-20T04:56:45.175Z,245
2018-06-20T04:57:54.914Z,250
2018-06-20T04:59:04.680Z,260
2018-06-20T05:00:14.427Z,265
2018-06-20T05:01:23.895Z,250
2018-06-20T05:02:33.367Z,245
2018-06-20T05:03:42.305Z,235
2018-06-20T05:04:52.043Z,235
2018-06-20T05:06:01.787Z,235
2018-06-20T05:07:11.795Z,235
2018-06-20T05:08:21.536Z,240
2018-06-20T05:09:31.014Z,245
2018-06-20T05:10:41.032Z,230
2018-06-20T05:11:50.554Z,225
2018-06-20T05:13:00.289Z,220
2018-06-20T05:14:10.295Z,215
2018-06-20T05:15:19.497Z,240
2018-06-20T05:16:29.522Z,260
2018-06-20T05:17:39.531Z,255
2018-06-20T05:18:49.267Z,250
2018-06-20T05:19:58.736Z,255
2018-06-20T05:21:07.951Z,250
2018-06-20T05:22:17.974Z,250
2018-06-20T05:23:27.986Z,245
2018-06-20T05:24:37.991Z,250
2018-06-20T05:25:47.732Z,255
2018-06-20T05:26:57.478Z,255
2018-06-20T05:28:07.220Z,265
2018-06-20T05:29:16.424Z,275
2018-06-20T05:30:26.155Z,275
2018-06-20T05:31:36.166Z,275
2018-06-20T05:32:45.969Z,290
2018-06-20T05:33:55.477Z,300
2018-06-20T05:35:04.957Z,310
2018-06-20T05:36:14.975Z,315
2018-06-20T05:37:24.723Z,320
2018-06-20T05:38:34.722Z,315
2018-06-20T05:39:44.197Z,305
2018-06-20T05:40:54.205Z,305
2018-06-20T05:42:03.678Z,315
2018-06-20T05:43:13.415Z,315
2018-06-20T05:44:23.420Z,305
2018-06-20T05:45:33.420Z,305
2018-06-20T05:46:43.441Z,305
2018-06-20T05:47:53.187Z,305
2018-06-20T05:49:03.202Z,310
2018-06-20T05:50:12.942Z,315
2018-06-20T05:51:22.969Z,315
2018-06-20T05:52:32.974Z,320
2018-06-20T05:53:43.030Z,310
2018-06-20T05:54:53.067Z,305
2018-06-20T05:56:02.811Z,300
2018-06-20T05:57:12.290Z,300
2018-06-20T05:58:22.289Z,310
2018-06-20T05:59:32.301Z,315
2018-06-20T06:00:42.317Z,330
2018-06-20T06:01:52.065Z,330
2018-06-20T06:03:02.074Z,325
2018-06-20T06:04:11.815Z,320
2018-06-20T06:05:22.177Z,295
2018-06-20T06:06:32.179Z,280
2018-06-20T06:07:41.919Z,280
2018-06-20T06:08:51.657Z,290
2018-06-20T06:10:01.663Z,290
2018-06-20T06:11:10.874Z,270
2018-06-20T06:12:20.345Z,290
2018-06-20T06:13:29.816Z,315
2018-06-20T06:14:39.630Z,295
2018-06-20T06:15:49.640Z,275
2018-06-20T06:16:59.819Z,265
2018-06-20T06:18:09.585Z,235
2018-06-20T06:19:19.322Z,230
2018-06-20T06:20:29.334Z,240
2018-06-20T06:21:38.805Z,255
2018-06-20T06:22:48.549Z,270
2018-06-20T06:23:58.021Z,290
2018-06-20T06:25:07.232Z,285
2018-06-20T06:26:16.990Z,275
2018-06-20T06:27:26.463Z,270
2018-06-20T06:28:36.472Z,285
2018-06-20T06:29:46.478Z,295
2018-06-20T06:30:55.954Z,295
2018-06-20T06:32:05.697Z,290
2018-06-20T06:33:15.436Z,295
2018-06-20T06:34:25.442Z,295
2018-06-20T06:35:35.450Z,310
2018-06-20T06:36:44.932Z,335
2018-06-20T06:37:54.822Z,345
2018-06-20T06:39:06.823Z,360
2018-06-20T06:40:16.833Z,365
2018-06-20T06:41:26.845Z,355
2018-06-20T06:42:36.314Z,345
2018-06-20T06:43:46.053Z,345
2018-06-20T06:44:55.798Z,360
2018-06-20T06:46:05.537Z,360
2018-06-20T06:47:15.284Z,365
2018-06-20T06:48:25.284Z,365
2018-06-20T06:49:35.142Z,360
2018-06-20T06:50:45.280Z,360
2018-06-20T06:51:55.298Z,360
2018-06-20T06:53:05.350Z,350
2018-06-20T06:54:15.135Z,335
2018-06-20T06:55:24.656Z,330
2018-06-20T06:56:36.132Z,335
2018-06-20T06:57:46.151Z,345
2018-06-20T06:58:55.623Z,340
2018-06-20T07:00:05.644Z,325
2018-06-20T07:01:15.656Z,315
2018-06-20T07:02:25.403Z,320
2018-06-20T07:03:35.151Z,320
2018-06-20T07:04:44.908Z,310
2018-06-20T07:05:54.926Z,300
2018-06-20T07:07:04.938Z,300
2018-06-20T07:08:14.413Z,295
2018-06-20T07:09:24.735Z,300
2018-06-20T07:10:34.743Z,305
2018-06-20T07:11:44.218Z,300
2018-06-20T07:12:53.952Z,280
2018-06-20T07:14:03.749Z,270
2018-06-20T07:15:13.493Z,280
2018-06-20T07:16:23.244Z,320
2018-06-20T07:17:33.299Z,345
2018-06-20T07:18:43.032Z,340
2018-06-20T07:19:52.544Z,340
2018-06-20T07:21:02.548Z,330
2018-06-20T07:22:12.561Z,315
2018-06-20T07:23:22.302Z,305
2018-06-20T07:24:32.347Z,310
2018-06-20T07:25:42.411Z,325
2018-06-20T07:26:51.353Z,360
2018-06-20T07:28:01.092Z,360
2018-06-20T07:29:11.106Z,360
2018-06-20T07:30:20.398Z,360
2018-06-20T07:31:29.871Z,355
2018-06-20T07:32:39.883Z,355
2018-06-20T07:33:49.629Z,365
2018-06-20T07:34:59.637Z,375
2018-06-20T07:36:09.461Z,390
2018-06-20T07:37:19.480Z,390
2018-06-20T07:38:29.226Z,380
2018-06-20T07:39:39.241Z,370
2018-06-20T07:40:48.978Z,375
2018-06-20T07:41:59.029Z,365
2018-06-20T07:43:08.774Z,370
2018-06-20T07:44:18.515Z,395
2018-06-20T07:45:28.526Z,405
2018-06-20T07:46:38.538Z,410
2018-06-20T07:47:48.712Z,415
2018-06-20T07:48:58.729Z,415
2018-06-20T07:50:08.532Z,435
2018-06-20T07:51:18.279Z,445
2018-06-20T07:52:28.021Z,445
2018-06-20T07:53:37.758Z,435
2018-06-20T07:54:47.491Z,440
2018-06-20T07:55:56.992Z,445
2018-06-20T07:57:06.739Z,440
2018-06-20T07:58:16.486Z,435
2018-06-20T07:59:26.492Z,430
2018-06-20T08:00:36.236Z,425
2018-06-20T08:01:45.970Z,415
2018-06-20T08:02:55.716Z,400
2018-06-20T08:04:05.456Z,390
2018-06-20T08:05:14.932Z,385
2018-06-20T08:06:25.404Z,375
2018-06-20T08:07:35.312Z,370
2018-06-20T08:08:45.321Z,370
2018-06-20T08:09:55.065Z,370
2018-06-20T08:11:05.082Z,365
2018-06-20T08:12:14.557Z,360
2018-06-20T08:13:24.027Z,355
2018-06-20T08:14:33.503Z,350
2018-06-20T08:15:43.250Z,350
2018-06-20T08:16:52.196Z,350
2018-06-20T08:18:01.986Z,345
2018-06-20T08:19:11.455Z,340
2018-06-20T08:20:20.664Z,335
2018-06-20T08:21:30.401Z,340
2018-06-20T08:22:40.409Z,335
2018-06-20T08:23:50.149Z,335
2018-06-20T08:25:00.168Z,340
2018-06-20T08:26:09.375Z,340
2018-06-20T08:27:19.115Z,340
2018-06-20T08:28:28.586Z,350
2018-06-20T08:29:38.594Z,355
2018-06-20T08:30:48.076Z,365
2018-06-20T08:31:58.085Z,370
2018-06-20T08:33:07.836Z,370
2018-06-20T08:34:17.315Z,365
2018-06-20T08:35:27.674Z,360
2018-06-20T08:36:37.679Z,360
2018-06-20T08:37:47.417Z,370
2018-06-20T08:38:57.152Z,380
2018-06-20T08:40:06.895Z,385
2018-06-20T08:41:16.646Z,390
2018-06-20T08:42:26.739Z,395
2018-06-20T08:43:36.470Z,395
2018-06-20T08:44:45.944Z,395
2018-06-20T08:45:55.943Z,390
2018-06-20T08:47:05.680Z,390
2018-06-20T08:48:15.423Z,385
2018-06-20T08:49:25.440Z,385
2018-06-20T08:50:35.452Z,385
2018-06-20T08:51:45.466Z,390
2018-06-20T08:52:55.222Z,385
2018-06-20T08:54:04.698Z,385
2018-06-20T08:55:14.442Z,385
2018-06-20T08:56:23.914Z,385
2018-06-20T08:57:33.664Z,390
2018-06-20T08:58:43.400Z,390
2018-06-20T08:59:52.871Z,390
2018-06-20T09:01:02.611Z,400
2018-06-20T09:02:12.879Z,410
2018-06-20T09:03:22.897Z,415
2018-06-20T09:04:32.117Z,415
2018-06-20T09:05:42.130Z,430
2018-06-20T09:06:51.869Z,450
2018-06-20T09:08:01.871Z,460
2018-06-20T09:09:11.892Z,460
2018-06-20T09:10:21.456Z,460
2018-06-20T09:11:30.928Z,460
2018-06-20T09:12:40.932Z,460
2018-06-20T09:13:50.938Z,460
2018-06-20T09:15:00.946Z,460
2018-06-20T09:16:10.706Z,460
2018-06-20T09:17:19.913Z,460
2018-06-20T09:18:30.016Z,460
2018-06-20T09:19:39.764Z,460
2018-06-20T09:20:49.514Z,470
2018-06-20T09:21:59.594Z,475
2018-06-20T09:23:09.086Z,485
2018-06-20T09:24:18.562Z,505
2018-06-20T09:25:28.313Z,520
2018-06-20T09:26:38.321Z,540
2018-06-20T09:27:47.798Z,550
2018-06-20T09:28:57.561Z,565
2018-06-20T09:30:07.956Z,565
2018-06-20T09:31:17.981Z,580
2018-06-20T09:32:27.987Z,570
2018-06-20T09:33:38.000Z,565
2018-06-20T09:34:47.742Z,560
2018-06-20T09:35:57.220Z,555
2018-06-20T09:37:06.966Z,535
2018-06-20T09:38:16.717Z,510
2018-06-20T09:39:26.187Z,505
2018-06-20T09:40:35.393Z,500
2018-06-20T09:41:45.396Z,490
2018-06-20T09:42:55.399Z,490
2018-06-20T09:44:04.609Z,490
2018-06-20T09:45:14.129Z,490
2018-06-20T09:46:24.139Z,490
2018-06-20T09:47:34.146Z,500
2018-06-20T09:48:44.151Z,510
2018-06-20T09:49:53.095Z,520
2018-06-20T09:51:03.469Z,530
2018-06-20T09:52:13.216Z,540
2018-06-20T09:53:22.694Z,555
2018-06-20T09:54:32.283Z,555
2018-06-20T09:55:42.298Z,565
2018-06-20T09:56:52.094Z,565
2018-06-20T09:58:02.488Z,575
2018-06-20T09:59:11.962Z,590
2018-06-20T10:00:21.707Z,600
2018-06-20T10:01:31.857Z,605
2018-06-20T10:02:40.787Z,615
2018-06-20T10:03:50.526Z,615
2018-06-20T10:05:00.533Z,615
2018-06-20T10:06:10.356Z,620
2018-06-20T10:07:20.367Z,625
2018-06-20T10:08:30.378Z,625
2018-06-20T10:09:40.416Z,625
2018-06-20T10:10:50.441Z,635
2018-06-20T10:12:00.185Z,630
2018-06-20T10:13:09.974Z,625
2018-06-20T10:14:19.728Z,625
2018-06-20T10:15:29.737Z,625
2018-06-20T10:16:39.762Z,615
2018-06-20T10:17:49.239Z,605
2018-06-20T10:18:58.710Z,600
2018-06-20T10:20:08.191Z,595
2018-06-20T10:21:18.914Z,605
2018-06-20T10:22:28.838Z,605
2018-06-20T10:23:38.591Z,605
2018-06-20T10:24:48.328Z,610
2018-06-20T10:25:58.340Z,610
2018-06-20T10:27:08.087Z,615
2018-06-20T10:28:17.838Z,615
2018-06-20T10:29:27.579Z,615
2018-06-20T10:30:37.326Z,610
2018-06-20T10:31:47.063Z,610
2018-06-20T10:32:56.802Z,610
2018-06-20T10:34:06.854Z,620
2018-06-20T10:35:16.615Z,620
2018-06-20T10:36:26.354Z,620
2018-06-20T10:37:36.108Z,620
2018-06-20T10:38:46.149Z,625
2018-06-20T10:39:55.718Z,625
2018-06-20T10:41:05.533Z,625
2018-06-20T10:42:14.475Z,630
2018-06-20T10:43:24.488Z,635
2018-06-20T10:44:34.494Z,635
2018-06-20T10:45:44.234Z,640
2018-06-20T10:46:54.239Z,645
2018-06-20T10:48:03.986Z,655
2018-06-20T10:49:13.733Z,670
2018-06-20T10:50:23.207Z,680
2018-06-20T10:51:32.945Z,695
2018-06-20T10:52:42.961Z,700
2018-06-20T10:53:52.452Z,700
2018-06-20T10:55:02.463Z,685
2018-06-20T10:56:12.208Z,670
2018-06-20T10:57:21.953Z,660
2018-06-20T10:58:31.969Z,645
2018-06-20T10:59:41.449Z,635
2018-06-20T11:00:51.347Z,625
2018-06-20T11:02:01.362Z,610
2018-06-20T11:03:10.839Z,605
2018-06-20T11:04:20.848Z,610
2018-06-20T11:05:30.863Z,620
2018-06-20T11:06:40.874Z,655
2018-06-20T11:07:50.610Z,685
2018-06-20T11:09:00.358Z,710
2018-06-20T11:10:10.107Z,725
2018-06-20T11:11:19.901Z,725
2018-06-20T11:12:29.647Z,720
2018-06-20T11:13:39.404Z,720
2018-06-20T11:14:49.145Z,715
2018-06-20T11:15:59.164Z,720
2018-06-20T11:17:09.175Z,720
2018-06-20T11:18:19.224Z,730
2018-06-20T11:19:28.971Z,735
2018-06-20T11:20:38.979Z,730
2018-06-20T11:21:48.456Z,735
2018-06-20T11:22:58.194Z,730
2018-06-20T11:24:07.948Z,740
2018-06-20T11:25:17.703Z,765
2018-06-20T11:26:27.214Z,780
2018-06-20T11:27:36.956Z,805
2018-06-20T11:28:46.439Z,825
2018-06-20T11:29:55.657Z,840
2018-06-20T11:31:05.788Z,875
2018-06-20T11:32:15.543Z,915
2018-06-20T11:33:25.554Z,890
2018-06-20T11:34:35.036Z,850
2018-06-20T11:35:45.041Z,795
2018-06-20T11:36:54.518Z,770
2018-06-20T11:38:04.526Z,780
2018-06-20T11:39:14.003Z,815
2018-06-20T11:40:24.109Z,770
2018-06-20T11:41:33.859Z,805
2018-06-20T11:42:43.868Z,890
2018-06-20T11:43:53.891Z,1020
2018-06-20T11:45:03.899Z,840
2018-06-20T11:46:13.640Z,765
2018-06-20T11:47:23.483Z,800
2018-06-20T11:48:33.501Z,800
2018-06-20T11:49:43.247Z,825
2018-06-20T11:50:52.728Z,1150
2018-06-20T11:52:02.469Z,1370
2018-06-20T11:53:12.229Z,1385
2018-06-20T11:54:21.971Z,845
2018-06-20T11:55:31.448Z,1070
2018-06-20T11:56:41.472Z,985
2018-06-20T11:57:50.947Z,950
2018-06-20T11:59:00.960Z,775
2018-06-20T12:00:10.704Z,855
2018-06-20T12:01:20.185Z,950
2018-06-20T12:02:29.938Z,1085
2018-06-20T12:03:39.999Z,1125
2018-06-20T12:04:49.474Z,990
2018-06-20T12:05:59.484Z,975
2018-06-20T12:07:09.236Z,1065
2018-06-20T12:08:18.984Z,975
2018-06-20T12:09:28.733Z,1055
2018-06-20T12:10:38.530Z,1455
2018-06-20T12:11:48.540Z,1355
2018-06-20T12:12:58.547Z,1950
2018-06-20T12:14:08.034Z,2140
2018-06-20T12:15:18.048Z,2050
2018-06-20T12:16:27.796Z,1820
2018-06-20T12:17:37.811Z,1735
2018-06-20T12:18:47.830Z,1130
2018-06-20T12:19:57.844Z,840
2018-06-20T12:21:07.587Z,1030
2018-06-20T12:22:17.357Z,2375
2018-06-20T12:23:27.105Z,2755
2018-06-20T12:24:36.583Z,2060
2018-06-20T12:25:46.336Z,3195
2018-06-20T12:26:56.105Z,3090
2018-06-20T12:28:06.128Z,3145
2018-06-20T12:29:16.067Z,3430
2018-06-20T12:30:26.091Z,3150
2018-06-20T12:31:36.112Z,3070
2018-06-20T12:32:46.127Z,3080
2018-06-20T12:33:56.244Z,3190
2018-06-20T12:35:05.455Z,3095
2018-06-20T12:36:15.207Z,3160
2018-06-20T12:37:25.221Z,3070
2018-06-20T12:38:34.705Z,2905
2018-06-20T12:39:44.195Z,2980
2018-06-20T12:40:54.365Z,2895
2018-06-20T12:42:04.429Z,2805
2018-06-20T12:43:14.453Z,3010
2018-06-20T12:44:23.959Z,2905
2018-06-20T12:45:33.565Z,3135
2018-06-20T12:46:43.320Z,3160
2018-06-20T12:47:53.077Z,3040
2018-06-20T12:49:02.828Z,2985
2018-06-20T12:50:12.903Z,3020
2018-06-20T12:51:22.921Z,3045
2018-06-20T12:52:32.520Z,3065
2018-06-20T12:53:42.549Z,2890
2018-06-20T12:54:52.570Z,2745
2018-06-20T12:56:02.054Z,2730
2018-06-20T12:57:11.011Z,2665
2018-06-20T12:58:20.662Z,2675
2018-06-20T12:59:30.732Z,2830
2018-06-20T13:00:40.752Z,2740
2018-06-20T13:01:50.772Z,2645
2018-06-20T13:03:00.530Z,2710
2018-06-20T13:04:10.590Z,2635
2018-06-20T13:05:20.614Z,2650
2018-06-20T13:06:30.640Z,2355
2018-06-20T13:07:40.665Z,2225
2018-06-20T13:08:50.428Z,2120
2018-06-20T13:10:00.449Z,2005
2018-06-20T13:11:10.206Z,2065
2018-06-20T13:12:20.229Z,2100
2018-06-20T13:13:29.985Z,2085
2018-06-20T13:14:39.736Z,2405
2018-06-20T13:15:49.755Z,900
2018-06-20T13:16:59.790Z,3370
2018-06-20T13:18:09.548Z,1235
2018-06-20T13:19:19.311Z,3525
2018-06-20T13:20:29.342Z,3065
2018-06-20T13:21:39.827Z,4025
2018-06-20T13:22:49.898Z,3790
2018-06-20T13:23:59.542Z,3940
2018-06-20T13:25:09.414Z,3975
2018-06-20T13:26:19.177Z,3750
2018-06-20T13:27:28.937Z,3575
2018-06-20T13:28:38.776Z,3960
2018-06-20T13:29:48.886Z,4395
2018-06-20T13:30:58.389Z,785
2018-06-20T13:32:07.617Z,735
2018-06-20T13:33:17.374Z,755
2018-06-20T13:34:27.405Z,950
2018-06-20T13:35:37.178Z,1925
2018-06-20T13:36:46.946Z,4620
2018-06-20T13:37:56.440Z,4895
2018-06-20T13:39:06.196Z,1100
2018-06-20T13:40:15.952Z,1050
2018-06-20T13:41:25.972Z,2495
2018-06-20T13:42:35.457Z,3970
2018-06-20T13:43:45.211Z,3520
2018-06-20T13:44:55.228Z,2975
2018-06-20T13:46:05.246Z,3280
2018-06-20T13:47:14.729Z,4065
2018-06-20T13:48:24.748Z,3875
2018-06-20T13:49:34.499Z,3795
2018-06-20T13:50:44.257Z,3855
2018-06-20T13:51:54.275Z,3935
2018-06-20T13:53:04.028Z,900
2018-06-20T13:54:13.788Z,3080
2018-06-20T13:55:23.285Z,1360
2018-06-20T13:56:33.034Z,965
2018-06-20T13:57:43.059Z,825
2018-06-20T13:58:52.813Z,875
2018-06-20T14:00:02.831Z,945
2018-06-20T14:01:12.317Z,1250
2018-06-20T14:02:21.802Z,810
2018-06-20T14:03:31.549Z,805
2018-06-20T14:04:41.585Z,825
2018-06-20T14:05:51.604Z,980
2018-06-20T14:07:01.645Z,1630
2018-06-20T14:08:11.131Z,1145
2018-06-20T14:09:21.144Z,850
2018-06-20T14:10:30.630Z,855
2018-06-20T14:11:40.122Z,875
2018-06-20T14:12:50.148Z,925
2018-06-20T14:13:59.899Z,1180
2018-06-20T14:15:09.649Z,3500
2018-06-20T14:16:19.686Z,3450
2018-06-20T14:17:29.721Z,3470
2018-06-20T14:18:41.478Z,3370
2018-06-20T14:19:51.498Z,3300
2018-06-20T14:21:00.711Z,3220
2018-06-20T14:22:10.464Z,3240
2018-06-20T14:23:20.484Z,1255
2018-06-20T14:24:30.497Z,2585
2018-06-20T14:25:40.254Z,2825
2018-06-20T14:26:50.007Z,2655
2018-06-20T14:28:00.034Z,2660
2018-06-20T14:29:09.518Z,2600
2018-06-20T14:30:19.584Z,2500
2018-06-20T14:31:29.066Z,2485
2018-06-20T14:32:38.819Z,2395
2018-06-20T14:33:48.576Z,2255
2018-06-20T14:34:58.331Z,2285
2018-06-20T14:36:07.821Z,2175
2018-06-20T14:37:17.839Z,2030
2018-06-20T14:38:27.861Z,1910
2018-06-20T14:39:37.884Z,1630
2018-06-20T14:40:47.900Z,1500
2018-06-20T14:41:57.924Z,1435
2018-06-20T14:43:07.687Z,1400
2018-06-20T14:44:17.172Z,1490
2018-06-20T14:45:26.669Z,1385
2018-06-20T14:46:36.423Z,1155
2018-06-20T14:47:46.224Z,980
2018-06-20T14:48:55.979Z,990
2018-06-20T14:50:06.000Z,985
2018-06-20T14:51:15.821Z,960
2018-06-20T14:52:25.579Z,880
2018-06-20T14:53:35.335Z,735
2018-06-20T14:54:45.082Z,650
2018-06-20T14:55:54.845Z,620
2018-06-20T14:57:04.596Z,605
2018-06-20T14:58:14.352Z,620
2018-06-20T14:59:24.377Z,625
2018-06-20T15:00:34.144Z,645
2018-06-20T15:01:44.159Z,660
2018-06-20T15:02:54.183Z,655
2018-06-20T15:04:03.943Z,620
2018-06-20T15:05:13.966Z,565
2018-06-20T15:06:23.991Z,525
2018-06-20T15:07:34.002Z,490
2018-06-20T15:08:43.758Z,465
2018-06-20T15:09:53.767Z,440
2018-06-20T15:11:03.512Z,425
2018-06-20T15:12:13.263Z,425
2018-06-20T15:13:23.291Z,425
2018-06-20T15:14:32.900Z,430
2018-06-20T15:15:42.957Z,450
2018-06-20T15:16:53.271Z,470
2018-06-20T15:18:03.014Z,480
2018-06-20T15:19:13.028Z,485
2018-06-20T15:20:23.319Z,485
2018-06-20T15:21:33.065Z,480
2018-06-20T15:22:42.872Z,470
2018-06-20T15:23:52.887Z,455
2018-06-20T15:25:02.899Z,430
2018-06-20T15:26:12.379Z,420
2018-06-20T15:27:22.128Z,400
2018-06-20T15:28:32.145Z,385
2018-06-20T15:29:42.221Z,370
2018-06-20T15:30:51.964Z,365
2018-06-20T15:32:01.978Z,350
2018-06-20T15:33:10.951Z,335
2018-06-20T15:34:20.158Z,330
2018-06-20T15:35:29.874Z,340
2018-06-20T15:36:39.694Z,350
2018-06-20T15:37:49.436Z,340
2018-06-20T15:38:59.458Z,355
2018-06-20T15:40:09.206Z,395
2018-06-20T15:41:19.223Z,435
2018-06-20T15:42:29.242Z,435
2018-06-20T15:43:39.254Z,435
2018-06-20T15:44:49.674Z,440
2018-06-20T15:45:59.160Z,445
2018-06-20T15:47:08.376Z,440
2018-06-20T15:48:17.857Z,435
2018-06-20T15:49:27.871Z,435
2018-06-20T15:50:37.884Z,435
2018-06-20T15:51:47.630Z,425
2018-06-20T15:52:57.108Z,425
2018-06-20T15:54:06.846Z,430
2018-06-20T15:55:16.319Z,425
2018-06-20T15:56:26.064Z,450
2018-06-20T15:57:36.078Z,480
2018-06-20T15:58:45.824Z,495
2018-06-20T15:59:55.843Z,455
2018-06-20T16:01:05.861Z,385
2018-06-20T16:02:15.340Z,355
2018-06-20T16:03:25.353Z,350
2018-06-20T16:04:35.371Z,360
2018-06-20T16:05:44.847Z,395
2018-06-20T16:06:54.321Z,430
2018-06-20T16:08:04.324Z,470
2018-06-20T16:09:14.343Z,535